Time;durP1;ratioP1;P1;durP2;ratioP2;P2;SDS_P1;SDS_P2;PMS_P1;PMS_P2;Temp;Humidity;BMP_temperature;BMP_pressure;BME280_temperature;BME280_humidity;BME280_pressure;Samples;Min_cycle;Max_cycle;Signal;HPM_P1;HPM_P2
2021/10/16 00:02:24;;;;;;;11.18;8.40;;;;;;;;;;5071760;28;20245;-85
2021/10/16 00:04:52;;;;;;;10.60;8.80;;;;;;;;;;5071538;28;20188;-85
2021/10/16 00:07:19;;;;;;;11.52;9.07;;;7.60;99.90;;;;;;5070054;28;20247;-85
2021/10/16 00:09:47;;;;;;;10.35;9.02;;;;;;;;;;5072413;28;20687;-85
2021/10/16 00:12:14;;;;;;;9.27;7.40;;;;;;;;;;5068154;28;20220;-85
2021/10/16 00:14:43;;;;;;;9.27;8.15;;;7.50;99.90;;;;;;5071423;28;20199;-85
2021/10/16 00:17:10;;;;;;;12.07;8.35;;;;;;;;;;5071059;28;20215;-85
2021/10/16 00:19:38;;;;;;;15.52;8.60;;;;;;;;;;5071274;28;20309;-85
2021/10/16 00:22:05;;;;;;;8.95;8.00;;;;;;;;;;5070363;28;20211;-85
2021/10/16 00:24:32;;;;;;;9.07;8.18;;;;;;;;;;5071639;28;20268;-85
2021/10/16 00:26:59;;;;;;;8.00;7.18;;;;;;;;;;5068034;28;20709;-85
2021/10/16 00:29:27;;;;;;;10.35;8.25;;;;;;;;;;5069020;28;20196;-85
2021/10/16 00:31:55;;;;;;;10.90;8.73;;;;;;;;;;5071301;28;20188;-84
2021/10/16 00:34:22;;;;;;;9.70;8.35;;;;;;;;;;5071178;28;20200;-85
2021/10/16 00:36:50;;;;;;;11.65;8.55;;;;;;;;;;5070303;28;20730;-85
2021/10/16 00:39:17;;;;;;;9.15;8.02;;;;;;;;;;5071677;28;20647;-85
2021/10/16 00:41:44;;;;;;;11.35;8.27;;;;;;;;;;5070634;28;20207;-85
2021/10/16 00:44:12;;;;;;;11.50;8.80;;;;;;;;;;5066149;28;20306;-85
2021/10/16 00:46:39;;;;;;;9.48;8.48;;;;;;;;;;5069191;28;20196;-85
2021/10/16 00:49:08;;;;;;;8.32;7.50;;;;;;;;;;5082896;28;20289;-85
2021/10/16 00:51:36;;;;;;;8.88;7.97;;;;;;;;;;5071699;28;20200;-85
2021/10/16 00:54:03;;;;;;;9.55;8.52;;;;;;;;;;5071308;28;20244;-85
2021/10/16 00:56:30;;;;;;;12.20;9.10;;;;;;;;;;5069703;28;20199;-85
2021/10/16 00:58:58;;;;;;;11.48;9.68;;;;;;;;;;5069696;28;20282;-85
2021/10/16 01:01:26;;;;;;;13.35;9.30;;;;;;;;;;5070629;28;20650;-86
2021/10/16 01:03:53;;;;;;;12.07;8.25;;;;;;;;;;5071001;28;20226;-85
2021/10/16 01:06:22;;;;;;;12.25;8.38;;;;;;;;;;5069042;28;20261;-84
2021/10/16 01:08:51;;;;;;;10.13;8.75;;;;;;;;;;5070417;28;20269;-86
2021/10/16 01:11:19;;;;;;;9.65;8.75;;;;;;;;;;5069912;28;20283;-85
2021/10/16 01:13:46;;;;;;;12.55;9.98;;;8.30;99.90;;;;;;5065418;28;20273;-85
2021/10/16 01:16:13;;;;;;;11.40;9.40;;;;;;;;;;5071101;28;20188;-86
2021/10/16 01:18:41;;;;;;;10.73;8.02;;;8.30;99.90;;;;;;5069879;28;20671;-85
2021/10/16 01:21:09;;;;;;;10.55;8.85;;;;;;;;;;5070461;28;20192;-85
2021/10/16 01:23:37;;;;;;;11.43;9.10;;;;;;;;;;5070613;28;20692;-85
2021/10/16 01:26:05;;;;;;;12.90;9.43;;;;;;;;;;5069378;28;21291;-85
2021/10/16 01:28:33;;;;;;;10.07;8.67;;;8.40;99.90;;;;;;5065573;28;20318;-86
2021/10/16 01:31:00;;;;;;;11.23;9.97;;;;;;;;;;5069662;28;20623;-85
2021/10/16 01:33:27;;;;;;;10.32;8.95;;;;;;;;;;5070142;28;20665;-85
2021/10/16 01:35:59;;;;;;;10.52;8.93;;;8.50;99.90;;;;;;5070648;28;20278;-86
2021/10/16 01:38:27;;;;;;;10.73;8.80;;;8.50;99.90;;;;;;5069373;28;20227;-88
2021/10/16 01:40:54;;;;;;;9.77;8.73;;;;;;;;;;5069903;28;20618;-86
2021/10/16 01:43:22;;;;;;;14.20;9.03;;;8.50;99.90;;;;;;5066480;28;20778;-85
2021/10/16 01:45:51;;;;;;;12.27;9.10;;;8.40;99.90;;;;;;5069552;28;20622;-85
2021/10/16 01:48:21;;;;;;;12.40;9.30;;;;;;;;;;5074258;28;20693;-85
2021/10/16 01:50:48;;;;;;;11.15;8.45;;;;;;;;;;5070488;28;20618;-85
2021/10/16 01:53:16;;;;;;;11.10;9.40;;;;;;;;;;5068827;28;20281;-85
2021/10/16 01:55:44;;;;;;;9.88;8.68;;;;;;;;;;5069730;28;20692;-85
2021/10/16 01:58:16;;;;;;;15.10;9.37;;;8.40;99.90;;;;;;5068762;28;20318;-84
2021/10/16 02:00:47;;;;;;;10.70;8.63;;;8.40;99.90;;;;;;5065398;28;20760;-86
2021/10/16 02:03:15;;;;;;;9.03;8.07;;;8.40;99.90;;;;;;5069798;28;20618;-85
2021/10/16 02:05:44;;;;;;;13.63;9.52;;;8.40;99.90;;;;;;5068367;28;20640;-85
2021/10/16 02:08:11;;;;;;;13.73;8.30;;;;;;;;;;5069015;28;20196;-86
2021/10/16 02:10:39;;;;;;;9.90;8.83;;;;;;;;;;5069232;28;21197;-85
2021/10/16 02:13:07;;;;;;;12.20;9.30;;;;;;;;;;5070035;28;20618;-86
2021/10/16 02:15:35;;;;;;;10.53;9.17;;;;;;;;;;5065575;28;21238;-86
2021/10/16 02:18:02;;;;;;;9.93;8.57;;;;;;;;;;5069198;28;20754;-85
2021/10/16 02:20:29;;;;;;;15.60;9.70;;;;;;;;;;5069625;28;20275;-86
2021/10/16 02:22:56;;;;;;;11.20;9.70;;;;;;;;;;5070013;28;20614;-85
2021/10/16 02:25:26;;;;;;;10.50;9.50;;;8.60;99.90;;;;;;5069410;28;20680;-88
2021/10/16 02:27:54;;;;;;;10.63;9.47;;;;;;;;;;5069355;28;20622;-86
2021/10/16 02:30:22;;;;;;;11.00;9.50;;;;;;;;;;5069482;28;21187;-85
2021/10/16 02:32:49;;;;;;;9.70;8.30;;;;;;;;;;5064148;28;20754;-86
2021/10/16 02:35:17;;;;;;;12.50;9.17;;;;;;;;;;5069983;28;20302;-85
2021/10/16 02:37:44;;;;;;;12.70;10.40;;;;;;;;;;5067499;28;20672;-85
2021/10/16 02:40:12;;;;;;;9.60;8.60;;;;;;;;;;5067823;28;20631;-85
2021/10/16 02:42:41;;;;;;;9.87;8.87;;;;;;;;;;5069163;28;20622;-85
2021/10/16 02:45:09;;;;;;;12.30;10.50;;;;;;;;;;5069429;28;20613;-85
2021/10/16 02:47:38;;;;;;;14.87;9.83;;;;;;;;;;5068126;28;20756;-85
2021/10/16 02:50:06;;;;;;;12.23;8.87;;;;;;;;;;5080186;28;20629;-86
2021/10/16 02:52:33;;;;;;;15.60;9.20;;;;;;;;;;5073011;28;20606;-86
2021/10/16 02:55:01;;;;;;;12.90;9.90;;;;;;;;;;5073566;28;20725;-85
2021/10/16 02:57:29;;;;;;;13.03;10.07;;;;;;;;;;5072223;28;20756;-85
2021/10/16 02:59:56;;;;;;;11.70;8.60;;;;;;;;;;5068213;28;21501;-85
2021/10/16 03:02:23;;;;;;;15.83;9.50;;;;;;;;;;5073249;28;20662;-86
2021/10/16 03:04:52;;;;;;;11.00;9.47;;;;;;;;;;5072718;28;20736;-86
2021/10/16 03:07:19;;;;;;;13.63;9.13;;;;;;;;;;5072428;28;20730;-85
2021/10/16 03:09:46;;;;;;;11.60;10.10;;;;;;;;;;5072741;28;20721;-85
2021/10/16 03:12:13;;;;;;;10.23;8.97;;;;;;;;;;5072235;28;20711;-85
2021/10/16 03:14:41;;;;;;;12.80;8.83;;;;;;;;;;5068458;28;20654;-86
2021/10/16 03:17:08;;;;;;;14.10;10.27;;;;;;;;;;5070200;28;20707;-86
2021/10/16 03:19:35;;;;;;;11.80;10.37;;;;;;;;;;5072053;28;20688;-85
2021/10/16 03:22:04;;;;;;;10.90;9.90;;;;;;;;;;5072387;28;20660;-85
2021/10/16 03:24:31;;;;;;;14.30;9.43;;;;;;;;;;5072315;28;20622;-85
2021/10/16 03:26:59;;;;;;;10.17;9.17;;;;;;;;;;5068368;28;20681;-85
2021/10/16 03:29:26;;;;;;;12.80;9.80;;;;;;;;;;5071365;28;20669;-85
2021/10/16 03:31:53;;;;;;;13.23;9.90;;;;;;;;;;5070927;28;20658;-88
2021/10/16 03:34:20;;;;;;;11.40;9.73;;;;;;;;;;5069854;28;20642;-85
2021/10/16 03:36:47;;;;;;;12.23;9.83;;;;;;;;;;5052530;28;20704;-86
2021/10/16 03:39:16;;;;;;;12.20;10.37;;;;;;;;;;5072241;28;20692;-86
2021/10/16 03:41:43;;;;;;;13.30;9.93;;;;;;;;;;5071578;28;20734;-85
2021/10/16 03:44:10;;;;;;;13.43;10.40;;;;;;;;;;5072520;28;20725;-86
2021/10/16 03:46:37;;;;;;;12.30;10.20;;;;;;;;;;5066473;28;20760;-85
2021/10/16 03:49:04;;;;;;;19.30;9.47;;;;;;;;;;5082370;28;20740;-85
2021/10/16 03:51:32;;;;;;;13.17;10.77;;;;;;;;;;5073439;28;20629;-85
2021/10/16 03:53:59;;;;;;;12.33;10.33;;;;;;;;;;5071988;28;20621;-85
2021/10/16 03:56:28;;;;;;;14.00;10.90;;;;;;;;;;5070784;28;20665;-85
2021/10/16 03:58:55;;;;;;;15.07;11.50;;;;;;;;;;5072287;28;20693;-86
2021/10/16 04:01:22;;;;;;;15.43;10.03;;;;;;;;;;5061494;28;20653;-86
2021/10/16 04:03:49;;;;;;;16.40;12.50;;;;;;;;;;5072108;28;20657;-85
2021/10/16 04:06:16;;;;;;;12.57;10.93;;;;;;;;;;5070517;28;20667;-85
2021/10/16 04:08:44;;;;;;;13.90;11.20;;;;;;;;;;5070939;28;20621;-85
2021/10/16 04:11:11;;;;;;;14.20;11.07;;;;;;;;;;5072029;28;20649;-85
2021/10/16 04:13:39;;;;;;;13.63;12.00;;;;;;;;;;5071934;28;20644;-85
2021/10/16 04:16:06;;;;;;;16.00;12.13;;;;;;;;;;5066714;28;20720;-85
2021/10/16 04:18:34;;;;;;;15.20;12.57;;;;;;;;;;5070777;28;20662;-85
2021/10/16 04:21:01;;;;;;;15.87;11.77;;;;;;;;;;5071668;28;20702;-84
2021/10/16 04:23:28;;;;;;;16.90;11.20;;;;;;;;;;5063597;28;20628;-85
2021/10/16 04:25:55;;;;;;;16.67;14.13;;;;;;;;;;5071225;28;20655;-85
2021/10/16 04:28:22;;;;;;;15.50;12.53;;;;;;;;;;5070655;28;21299;-85
2021/10/16 04:30:51;;;;;;;16.83;13.77;;;;;;;;;;5069359;28;20707;-85
2021/10/16 04:33:20;;;;;;;15.67;13.63;;;;;;;;;;5069681;28;20642;-85
2021/10/16 04:35:48;;;;;;;19.70;13.67;;;;;;;;;;5070625;28;21196;-85
2021/10/16 04:38:15;;;;;;;18.30;13.10;;;;;;;;;;5071031;28;20657;-85
2021/10/16 04:40:43;;;;;;;21.33;14.63;;;;;;;;;;5070881;28;20859;-85
2021/10/16 04:43:11;;;;;;;22.10;14.83;;;8.60;99.90;;;;;;5071050;28;20622;-85
2021/10/16 04:45:38;;;;;;;17.93;12.37;;;;;;;;;;5071413;28;21037;-85
2021/10/16 04:48:08;;;;;;;18.90;13.43;;;8.70;99.90;;;;;;5067755;28;20704;-85
2021/10/16 04:50:35;;;;;;;18.57;12.80;;;;;;;;;;5072923;28;20644;-85
2021/10/16 04:53:02;;;;;;;24.63;13.30;;;;;;;;;;5071096;28;20721;-85
2021/10/16 04:55:30;;;;;;;22.00;14.70;;;;;;;;;;5070841;28;20649;-85
2021/10/16 04:57:57;;;;;;;16.90;12.30;;;;;;;;;;5070496;28;20679;-85
2021/10/16 05:00:24;;;;;;;15.60;11.13;;;;;;;;;;5065186;28;20676;-85
2021/10/16 05:02:51;;;;;;;16.10;10.87;;;;;;;;;;5067645;28;20614;-84
2021/10/16 05:05:20;;;;;;;13.83;11.00;;;;;;;;;;5070731;28;20719;-85
2021/10/16 05:07:47;;;;;;;13.17;10.00;;;;;;;;;;5069580;28;20653;-85
2021/10/16 05:10:14;;;;;;;13.40;11.00;;;;;;;;;;5070144;28;20665;-85
2021/10/16 05:12:41;;;;;;;12.13;9.87;;;;;;;;;;5070583;28;20622;-85
2021/10/16 05:15:09;;;;;;;12.27;9.57;;;8.90;99.90;;;;;;5070816;28;20613;-85
2021/10/16 05:17:37;;;;;;;12.40;10.23;;;;;;;;;;5064683;28;20689;-85
2021/10/16 05:20:05;;;;;;;10.60;9.60;;;9.50;99.90;;;;;;5070416;28;20773;-85
2021/10/16 05:22:33;;;;;;;13.60;10.30;;;;;;;;;;5055801;28;21205;-87
2021/10/16 05:25:00;;;;;;;10.90;9.80;;;;;;;;;;5070048;28;21307;-84
2021/10/16 05:27:27;;;;;;;10.77;9.63;;;;;;;;;;5069867;28;20618;-85
2021/10/16 05:29:55;;;;;;;12.03;8.83;;;;;;;;;;5069929;28;21194;-85
2021/10/16 05:32:22;;;;;;;11.13;9.30;;;;;;;;;;5064271;28;20697;-86
2021/10/16 05:34:49;;;;;;;12.63;10.80;;;;;;;;;;5070472;28;20663;-85
2021/10/16 05:37:16;;;;;;;13.00;10.63;;;;;;;;;;5070202;28;20614;-85
2021/10/16 05:39:45;;;;;;;13.93;10.57;;;;;;;;;;5070068;28;20665;-88
2021/10/16 05:42:12;;;;;;;16.50;12.53;;;;;;;;;;5069776;28;20668;-87
2021/10/16 05:44:39;;;;;;;14.80;11.00;;;;;;;;;;5069317;28;20648;-85
2021/10/16 05:47:06;;;;;;;12.67;10.20;;;;;;;;;;5069734;28;20654;-85
2021/10/16 05:49:34;;;;;;;14.33;12.10;;;;;;;;;;5077096;28;20618;-85
2021/10/16 05:52:01;;;;;;;16.17;11.47;;;;;;;;;;5070123;28;20642;-85
2021/10/16 05:54:28;;;;;;;15.33;12.10;;;;;;;;;;5070439;28;20668;-85
2021/10/16 05:56:57;;;;;;;27.70;14.10;;;;;;;;;;5065583;28;20729;-85
2021/10/16 05:59:24;;;;;;;18.37;13.70;;;;;;;;;;5069551;28;21113;-85
2021/10/16 06:01:51;;;;;;;15.20;11.10;;;;;;;;;;5056512;28;20653;-85
2021/10/16 06:04:18;;;;;;;14.40;12.17;;;;;;;;;;5063236;28;20671;-85
2021/10/16 06:06:46;;;;;;;17.50;12.83;;;;;;;;;;5068540;28;20653;-85
2021/10/16 06:09:14;;;;;;;15.07;11.87;;;;;;;;;;5070089;28;20725;-85
2021/10/16 06:11:41;;;;;;;15.43;12.03;;;;;;;;;;5069540;28;20717;-85
2021/10/16 06:14:10;;;;;;;15.70;11.37;;;;;;;;;;5069807;28;20630;-86
2021/10/16 06:16:37;;;;;;;21.43;12.80;;;;;;;;;;5069273;28;20617;-85
2021/10/16 06:19:05;;;;;;;17.80;12.40;;;;;;;;;;5069625;28;20649;-85
2021/10/16 06:21:32;;;;;;;16.02;12.98;;;;;;;;;;5068747;28;20771;-85
2021/10/16 06:23:59;;;;;;;16.13;12.60;;;;;;;;;;5069075;28;20199;-85
2021/10/16 06:26:29;;;;;;;13.97;11.37;;;;;;;;;;5067370;28;20674;-86
2021/10/16 06:28:56;;;;;;;15.33;12.03;;;;;;;;;;5068388;28;21217;-85
2021/10/16 06:31:25;;;;;;;15.00;12.63;;;;;;;;;;5068971;28;20662;-85
2021/10/16 06:33:52;;;;;;;12.33;10.43;;;;;;;;;;5069289;28;20637;-85
2021/10/16 06:36:19;;;;;;;16.30;12.73;;;;;;;;;;5068690;28;20687;-86
2021/10/16 06:38:46;;;;;;;17.07;11.70;;;;;;;;;;5067099;28;20669;-86
2021/10/16 06:41:13;;;;;;;12.60;11.30;;;;;;;;;;5063788;28;20674;-85
2021/10/16 06:43:40;;;;;;;12.93;11.57;;;;;;;;;;5069460;28;20680;-85
2021/10/16 06:46:07;;;;;;;14.07;11.33;;;;;;;;;;5068084;28;20661;-85
2021/10/16 06:48:36;;;;;;;15.30;11.63;;;;;;;;;;5068285;28;20695;-85
2021/10/16 06:51:06;;;;;;;12.33;10.90;;;9.00;99.90;;;;;;5068829;28;20682;-85
2021/10/16 06:53:33;;;;;;;15.93;11.87;;;;;;;;;;5069472;28;20674;-85
2021/10/16 06:56:00;;;;;;;14.37;11.50;;;;;;;;;;5068601;28;20654;-85
2021/10/16 06:58:27;;;;;;;14.33;12.30;;;;;;;;;;5067461;28;20641;-84
2021/10/16 07:00:54;;;;;;;14.20;12.67;;;;;;;;;;5054038;28;20622;-86
2021/10/16 07:03:22;;;;;;;14.70;11.10;;;;;;;;;;5068688;28;20622;-85
2021/10/16 07:05:50;;;;;;;14.13;12.53;;;;;;;;;;5069108;28;20717;-85
2021/10/16 07:08:18;;;;;;;14.00;12.30;;;;;;;;;;5068368;28;20683;-86
2021/10/16 07:10:45;;;;;;;20.40;13.00;;;;;;;;;;5069482;28;20675;-85
2021/10/16 07:13:15;;;;;;;15.30;13.70;;;;;;;;;;5068502;28;20639;-85
2021/10/16 07:15:42;;;;;;;14.33;11.87;;;;;;;;;;5069587;28;20618;-86
2021/10/16 07:18:09;;;;;;;16.20;14.23;;;;;;;;;;5068298;28;20646;-85
2021/10/16 07:20:36;;;;;;;16.83;13.90;;;;;;;;;;5069027;28;20662;-85
2021/10/16 07:23:07;;;;;;;23.10;14.40;;;;;;;;;;5069451;28;20654;-87
2021/10/16 07:25:34;;;;;;;25.57;15.13;;;9.20;99.90;;;;;;5067438;28;20630;-85
2021/10/16 07:28:01;;;;;;;21.47;13.90;;;;;;;;;;5066128;28;20649;-85
2021/10/16 07:30:29;;;;;;;23.47;15.30;;;;;;;;;;5066067;28;20748;-86
2021/10/16 07:32:56;;;;;;;22.73;16.80;;;;;;;;;;5069279;28;20720;-85
2021/10/16 07:35:23;;;;;;;19.07;13.67;;;;;;;;;;5070395;28;20691;-84
2021/10/16 07:37:50;;;;;;;28.60;15.83;;;;;;;;;;5070844;28;20657;-86
2021/10/16 07:40:19;;;;;;;26.60;14.87;;;;;;;;;;5071934;28;20713;-87
2021/10/16 07:42:46;;;;;;;15.63;12.63;;;;;;;;;;5072392;28;20653;-86
2021/10/16 07:45:13;;;;;;;20.47;14.77;;;;;;;;;;5072477;28;20598;-85
2021/10/16 07:47:40;;;;;;;18.60;14.90;;;;;;;;;;5071347;28;20713;-86
2021/10/16 07:50:08;;;;;;;17.90;14.80;;;9.30;99.90;;;;;;5072531;28;20653;-85
2021/10/16 07:52:37;;;;;;;22.70;15.57;;;;;;;;;;5072078;28;20723;-85
2021/10/16 07:55:04;;;;;;;22.50;17.10;;;;;;;;;;5072660;28;21061;-85
2021/10/16 07:57:32;;;;;;;25.20;15.67;;;9.20;99.90;;;;;;5071541;28;21602;-86
2021/10/16 07:59:59;;;;;;;24.90;16.50;;;;;;;;;;5062804;28;20689;-85
2021/10/16 08:02:27;;;;;;;25.83;15.17;;;;;;;;;;5071991;28;21229;-85
2021/10/16 08:04:54;;;;;;;21.10;13.77;;;;;;;;;;5072018;28;20614;-85
2021/10/16 08:07:21;;;;;;;20.73;15.30;;;;;;;;;;5070736;28;21200;-84
2021/10/16 08:09:48;;;;;;;20.73;15.10;;;;;;;;;;5070880;28;20626;-85
2021/10/16 08:12:16;;;;;;;21.53;14.43;;;;;;;;;;5055043;28;20622;-85
2021/10/16 08:14:44;;;;;;;19.60;13.33;;;;;;;;;;5070704;28;20625;-84
2021/10/16 08:17:11;;;;;;;20.27;14.30;;;;;;;;;;5070899;28;20662;-84
2021/10/16 08:19:39;;;;;;;19.40;13.73;;;;;;;;;;5070048;28;20646;-84
2021/10/16 08:22:08;;;;;;;19.37;13.63;;;;;;;;;;5071311;28;20720;-84
2021/10/16 08:24:35;;;;;;;18.83;12.17;;;;;;;;;;5070816;28;20648;-85
2021/10/16 08:27:02;;;;;;;15.07;12.97;;;;;;;;;;5069862;28;20661;-84
2021/10/16 08:29:30;;;;;;;22.80;14.80;;;;;;;;;;5070310;28;20641;-85
2021/10/16 08:31:58;;;;;;;18.60;13.83;;;;;;;;;;5070884;28;20654;-85
2021/10/16 08:34:26;;;;;;;18.20;12.80;;;9.70;99.90;;;;;;5069806;28;20665;-85
2021/10/16 08:36:53;;;;;;;21.90;14.90;;;;;;;;;;5070633;28;21315;-85
2021/10/16 08:39:23;;;;;;;19.90;14.67;;;;;;;;;;5071271;28;21241;-84
2021/10/16 08:41:51;;;;;;;21.40;14.37;;;9.70;99.90;;;;;;5071128;28;20621;-85
2021/10/16 08:44:18;;;;;;;22.97;14.23;;;;;;;;;;5069710;28;20978;-85
2021/10/16 08:46:45;;;;;;;18.80;13.23;;;9.70;99.90;;;;;;5069691;28;20655;-85
2021/10/16 08:49:16;;;;;;;20.20;13.70;;;9.80;99.90;;;;;;5070521;28;20673;-85
2021/10/16 08:51:44;;;;;;;24.00;16.00;;;9.80;99.90;;;;;;5070899;28;20614;-85
2021/10/16 08:54:11;;;;;;;23.40;15.87;;;;;;;;;;5069841;28;20684;-85
2021/10/16 08:56:38;;;;;;;24.80;15.60;;;;;;;;;;5070603;28;20622;-85
2021/10/16 08:59:05;;;;;;;24.53;16.33;;;9.90;99.90;;;;;;5070144;28;20977;-84
2021/10/16 09:01:33;;;;;;;24.53;16.10;;;;;;;;;;5069260;28;20692;-85
2021/10/16 09:04:00;;;;;;;27.23;16.00;;;;;;;;;;5070638;28;20658;-85
2021/10/16 09:06:30;;;;;;;24.23;17.10;;;10.00;99.90;;;;;;5070192;28;20675;-85
2021/10/16 09:08:59;;;;;;;21.70;16.10;;;10.00;99.90;;;;;;5069662;28;21023;-85
2021/10/16 09:11:32;;;;;;;27.23;17.77;;;10.00;99.90;;;;;;5070555;28;21002;-85
2021/10/16 09:14:05;;;;;;;27.83;17.13;;;10.00;99.90;;;;;;5069393;28;20978;-84
2021/10/16 09:16:36;;;;;;;26.10;17.20;;;10.10;99.90;;;;;;5070219;28;20649;-85
2021/10/16 09:19:12;;;;;;;23.70;17.27;;;10.10;99.90;;;;;;5068620;28;20619;-85
2021/10/16 09:21:43;;;;;;;22.00;18.10;;;10.10;99.90;;;;;;5070568;28;20634;-85
2021/10/16 09:24:21;;;;;;;24.20;17.70;;;10.10;99.90;;;;;;5070192;28;20671;-85
2021/10/16 09:26:50;;;;;;;28.30;18.00;;;10.10;99.90;;;;;;5069867;28;20653;-85
2021/10/16 09:29:19;;;;;;;26.07;17.80;;;10.20;99.90;;;;;;5069558;28;20703;-85
2021/10/16 09:31:49;;;;;;;26.20;18.77;;;10.30;99.90;;;;;;5069465;28;20749;-87
2021/10/16 09:34:24;;;;;;;20.87;16.57;;;10.40;99.90;;;;;;5070029;28;21240;-85
2021/10/16 09:36:52;;;;;;;18.53;16.30;;;;;;;;;;5069366;28;21172;-85
2021/10/16 09:39:20;;;;;;;18.33;13.80;;;10.30;99.90;;;;;;5069030;28;20622;-86
2021/10/16 09:41:48;;;;;;;21.50;16.10;;;10.40;99.90;;;;;;5070066;28;21022;-85
2021/10/16 09:44:24;;;;;;;20.93;17.23;;;10.40;99.90;;;;;;5068855;28;20985;-86
2021/10/16 09:47:03;;;;;;;24.90;16.80;;;10.20;99.90;;;;;;5069438;28;20686;-85
2021/10/16 09:49:33;;;;;;;30.23;19.53;;;10.10;99.90;;;;;;5068550;28;20618;-85
2021/10/16 09:52:02;;;;;;;29.37;19.40;;;;;;;;;;5069950;28;20688;-85
2021/10/16 09:54:30;;;;;;;27.40;20.13;;;;;;;;;;5068217;28;20675;-86
2021/10/16 09:56:59;;;;;;;27.60;18.03;;;;;;;;;;5068839;28;20656;-85
2021/10/16 09:59:26;;;;;;;32.70;19.57;;;10.40;99.90;;;;;;5069478;28;21003;-85
2021/10/16 10:01:54;;;;;;;32.67;19.50;;;10.40;99.90;;;;;;5069488;28;20664;-85
2021/10/16 10:04:24;;;;;;;26.17;18.13;;;10.30;99.90;;;;;;5070285;28;20724;-87
2021/10/16 10:06:51;;;;;;;31.90;18.77;;;;;;;;;;5068506;28;20606;-85
2021/10/16 10:09:21;;;;;;;26.50;19.73;;;10.60;99.90;;;;;;5067636;28;20721;-85
2021/10/16 10:11:50;;;;;;;29.73;20.63;;;;;;;;;;5069921;28;20649;-85
2021/10/16 10:14:19;;;;;;;30.67;20.07;;;;;;;;;;5070037;28;20618;-85
2021/10/16 10:16:47;;;;;;;35.00;20.73;;;11.30;99.90;;;;;;5067659;28;20622;-85
2021/10/16 10:19:15;;;;;;;26.10;17.87;;;;;;;;;;5066102;28;20692;-85
2021/10/16 10:21:43;;;;;;;25.27;16.10;;;11.30;99.90;;;;;;5068852;28;20867;-86
2021/10/16 10:24:12;;;;;;;24.23;17.07;;;11.40;99.90;;;;;;5069746;28;20687;-85
2021/10/16 10:26:42;;;;;;;24.40;15.30;;;11.30;99.90;;;;;;5069325;28;20699;-84
2021/10/16 10:29:11;;;;;;;25.33;17.10;;;11.00;99.90;;;;;;5069761;28;20683;-85
2021/10/16 10:31:54;;;;;;;25.20;16.97;;;;;;;;;;5069717;28;20720;-85
2021/10/16 10:34:23;;;;;;;25.63;17.60;;;11.60;99.90;;;;;;5068865;28;20621;-85
2021/10/16 10:36:53;;;;;;;29.60;16.87;;;11.80;99.90;;;;;;5068956;28;20619;-87
2021/10/16 10:39:54;;;;;;;31.83;16.90;;;12.00;99.90;;;;;;5069505;28;20665;-85
2021/10/16 10:42:50;;;;;;;23.70;17.90;;;12.00;99.90;;;;;;5059849;28;20648;-85
2021/10/16 10:45:41;;;;;;;25.53;18.43;;;12.00;99.90;;;;;;5055426;28;21570;-86
2021/10/16 10:48:17;;;;;;;27.20;17.87;;;11.90;99.90;;;;;;5068446;28;20625;-85
2021/10/16 10:50:56;;;;;;;23.53;16.00;;;12.00;99.90;;;;;;5069249;28;20629;-86
2021/10/16 10:53:38;;;;;;;23.00;16.43;;;12.20;99.90;;;;;;5069417;28;20633;-86
2021/10/16 10:56:10;;;;;;;21.10;15.37;;;12.40;99.90;;;;;;5069961;28;21024;-86
2021/10/16 10:59:14;;;;;;;22.27;16.27;;;12.50;99.90;;;;;;5068836;28;20618;-85
2021/10/16 11:02:03;;;;;;;18.83;15.00;;;12.90;99.90;;;;;;5069622;28;21145;-86
2021/10/16 11:04:46;;;;;;;21.33;15.60;;;12.90;99.90;;;;;;5069607;28;20684;-86
2021/10/16 11:07:18;;;;;;;21.10;16.30;;;12.90;99.90;;;;;;5070367;28;20617;-86
2021/10/16 11:09:45;;;;;;;18.00;15.00;;;;;;;;;;5073038;28;20621;-86
2021/10/16 11:12:14;;;;;;;17.63;14.17;;;13.00;99.60;;;;;;5073172;28;21170;-86
2021/10/16 11:14:46;;;;;;;18.23;15.13;;;13.10;99.90;;;;;;5072580;28;21197;-86
2021/10/16 11:17:15;;;;;;;23.93;16.73;;;13.10;99.90;;;;;;5072562;28;20665;-87
2021/10/16 11:19:56;;;;;;;23.13;16.53;;;13.00;99.10;;;;;;5072393;28;20649;-86
2021/10/16 11:22:23;;;;;;;21.77;16.37;;;;;;;;;;5073473;28;20618;-86
2021/10/16 11:24:51;;;;;;;32.10;19.10;;;;;;;;;;5072820;28;20614;-85
2021/10/16 11:27:22;;;;;;;23.50;18.67;;;13.10;99.20;;;;;;5072631;28;20629;-86
2021/10/16 11:29:51;;;;;;;18.70;16.33;;;;;;;;;;5072067;28;20724;-86
2021/10/16 11:32:19;;;;;;;20.60;18.37;;;12.80;99.90;;;;;;5072586;28;20641;-85
2021/10/16 11:34:57;;;;;;;22.50;16.90;;;12.90;99.90;;;;;;5071428;28;20668;-86
2021/10/16 11:37:43;;;;;;;22.43;17.57;;;12.70;99.90;;;;;;5072146;28;20656;-85
2021/10/16 11:40:14;;;;;;;19.83;15.40;;;12.90;99.90;;;;;;5072522;28;20741;-86
2021/10/16 11:42:45;;;;;;;25.40;17.40;;;12.70;99.90;;;;;;5072396;28;20703;-85
2021/10/16 11:45:15;;;;;;;23.73;18.83;;;13.00;99.90;;;;;;5072287;28;20694;-86
2021/10/16 11:47:44;;;;;;;25.60;18.73;;;13.00;99.50;;;;;;5072375;28;20698;-86
2021/10/16 11:50:13;;;;;;;26.33;19.27;;;;;;;;;;5072079;28;20712;-87
2021/10/16 11:52:41;;;;;;;26.63;19.47;;;;;;;;;;5072291;28;20626;-86
2021/10/16 11:55:17;;;;;;;24.60;19.07;;;13.00;99.90;;;;;;5071903;28;21228;-86
2021/10/16 11:57:45;;;;;;;19.60;16.27;;;;;;;;;;5071325;28;20661;-86
2021/10/16 12:00:25;;;;;;;15.87;13.60;;;13.20;98.20;;;;;;5072160;28;20777;-86
2021/10/16 12:02:52;;;;;;;16.60;13.80;;;;;;;;;;5071616;28;20618;-86
2021/10/16 12:05:21;;;;;;;17.77;13.80;;;13.40;98.70;;;;;;5071915;28;20617;-86
2021/10/16 12:07:49;;;;;;;16.70;15.10;;;;;;;;;;5071015;28;20619;-85
2021/10/16 12:10:27;;;;;;;16.17;13.83;;;13.40;98.40;;;;;;5072406;28;20617;-86
2021/10/16 12:12:57;;;;;;;17.43;13.00;;;;;;;;;;5071891;28;20618;-87
2021/10/16 12:15:32;;;;;;;16.33;13.63;;;13.10;98.80;;;;;;5071764;28;21240;-86
2021/10/16 12:18:05;;;;;;;18.27;13.67;;;13.10;99.20;;;;;;5070965;28;21166;-86
2021/10/16 12:20:43;;;;;;;15.47;12.23;;;;;;;;;;5071161;28;20740;-86
2021/10/16 12:23:12;;;;;;;13.17;11.87;;;;;;;;;;5071938;28;20672;-86
2021/10/16 12:25:46;;;;;;;15.47;13.87;;;;;;;;;;5071995;28;20611;-86
2021/10/16 12:28:13;;;;;;;14.87;13.37;;;;;;;;;;5070953;28;20623;-86
2021/10/16 12:31:00;;;;;;;16.07;14.13;;;12.90;98.90;;;;;;5071427;28;20665;-86
2021/10/16 12:33:33;;;;;;;15.30;13.70;;;;;;;;;;5071688;28;20683;-86
2021/10/16 12:36:02;;;;;;;16.67;12.70;;;13.10;99.00;;;;;;5071209;28;21178;-86
2021/10/16 12:38:46;;;;;;;15.53;13.63;;;;;;;;;;5071418;28;21034;-87
2021/10/16 12:41:22;;;;;;;16.20;14.00;;;;;;;;;;5070600;28;21213;-86
2021/10/16 12:43:49;;;;;;;15.53;13.50;;;;;;;;;;5071505;28;20610;-86
2021/10/16 12:46:28;;;;;;;15.00;12.50;;;;;;;;;;5071477;28;21098;-86
2021/10/16 12:48:56;;;;;;;12.60;11.30;;;;;;;;;;5071153;28;20619;-86
2021/10/16 12:51:40;;;;;;;12.60;10.87;;;13.30;97.70;;;;;;5071352;28;20640;-86
2021/10/16 12:54:08;;;;;;;12.90;11.57;;;;;;;;;;5071478;28;20632;-87
2021/10/16 12:56:37;;;;;;;13.50;10.83;;;;;;;;;;5070750;28;20675;-85
2021/10/16 12:59:04;;;;;;;15.13;11.80;;;;;;;;;;5071190;28;20626;-87
2021/10/16 13:01:33;;;;;;;14.40;12.30;;;;;;;;;;5071231;28;21050;-87
2021/10/16 13:04:00;;;;;;;11.83;10.60;;;;;;;;;;5070698;28;20996;-86
2021/10/16 13:06:27;;;;;;;12.30;11.00;;;;;;;;;;5070123;28;21058;-85
2021/10/16 13:08:56;;;;;;;15.63;11.00;;;;;;;;;;5070737;28;20650;-86
2021/10/16 13:11:23;;;;;;;13.60;10.63;;;;;;;;;;5070365;28;20634;-86
2021/10/16 13:13:50;;;;;;;11.67;10.43;;;;;;;;;;5070273;28;20729;-86
2021/10/16 13:16:17;;;;;;;12.17;10.80;;;;;;;;;;5070381;28;20669;-86
2021/10/16 13:18:46;;;;;;;13.17;11.07;;;;;;;;;;5069657;28;20614;-86
2021/10/16 13:21:13;;;;;;;11.40;9.93;;;;;;;;;;5070485;28;20645;-86
2021/10/16 13:23:40;;;;;;;13.63;11.57;;;;;;;;;;5070689;28;21094;-86
2021/10/16 13:26:07;;;;;;;11.67;10.47;;;;;;;;;;5070623;28;21039;-86
2021/10/16 13:28:37;;;;;;;13.57;10.90;;;;;;;;;;5069882;28;20649;-86
2021/10/16 13:31:04;;;;;;;12.33;10.57;;;;;;;;;;5069576;28;20691;-86
2021/10/16 13:33:31;;;;;;;13.63;12.30;;;;;;;;;;5070071;28;20620;-86
2021/10/16 13:36:00;;;;;;;13.50;11.67;;;;;;;;;;5070080;28;21014;-87
2021/10/16 13:38:27;;;;;;;13.23;11.33;;;;;;;;;;5069756;28;20745;-86
2021/10/16 13:40:54;;;;;;;11.93;10.63;;;;;;;;;;5070390;28;20685;-87
2021/10/16 13:43:21;;;;;;;12.73;11.43;;;;;;;;;;5070128;28;20617;-85
2021/10/16 13:45:48;;;;;;;49.03;14.80;;;;;;;;;;5060871;28;20679;-86
2021/10/16 13:48:15;;;;;;;12.40;11.20;;;;;;;;;;5068992;28;20618;-85
2021/10/16 13:50:43;;;;;;;12.73;11.27;;;;;;;;;;5068942;28;21173;-86
2021/10/16 13:53:11;;;;;;;11.30;10.20;;;13.70;96.30;;;;;;5068340;28;20634;-85
2021/10/16 13:55:38;;;;;;;12.07;10.30;;;;;;;;;;5069403;28;20652;-86
2021/10/16 13:58:05;;;;;;;10.13;8.97;;;;;;;;;;5067341;28;20668;-85
2021/10/16 14:00:32;;;;;;;10.43;9.40;;;;;;;;;;5068436;28;20648;-85